sensor_id;sensor_type;location;lat;lon;timestamp;pressure;altitude;pressure_sealevel;temperature;humidity
20115;BME280;10218;42.874;25.320;2024-01-07T00:00:44;95833.72;;;15.23;100.00
20115;BME280;10218;42.874;25.320;2024-01-07T00:03:13;95854.19;;;15.24;100.00
20115;BME280;10218;42.874;25.320;2024-01-07T00:05:43;95834.53;;;15.35;100.00
20115;BME280;10218;42.874;25.320;2024-01-07T00:08:10;95829.97;;;15.47;100.00
20115;BME280;10218;42.874;25.320;2024-01-07T00:10:38;95829.63;;;15.32;100.00
20115;BME280;10218;42.874;25.320;2024-01-07T00:13:05;95824.34;;;15.02;100.00
20115;BME280;10218;42.874;25.320;2024-01-07T00:15:32;95823.53;;;15.25;100.00
20115;BME280;10218;42.874;25.320;2024-01-07T00:17:59;95823.53;;;15.25;100.00
20115;BME280;10218;42.874;25.320;2024-01-07T00:20:27;95813.69;;;14.95;100.00
20115;BME280;10218;42.874;25.320;2024-01-07T00:22:55;95798.38;;;14.96;100.00
20115;BME280;10218;42.874;25.320;2024-01-07T00:25:23;95809.53;;;15.23;100.00
20115;BME280;10218;42.874;25.320;2024-01-07T00:27:50;95804.50;;;15.38;100.00
20115;BME280;10218;42.874;25.320;2024-01-07T00:30:18;95792.53;;;15.34;100.00
20115;BME280;10218;42.874;25.320;2024-01-07T00:32:46;95771.13;;;15.39;100.00
20115;BME280;10218;42.874;25.320;2024-01-07T00:35:13;95769.50;;;15.38;100.00
20115;BME280;10218;42.874;25.320;2024-01-07T00:37:40;95782.03;;;15.32;100.00
20115;BME280;10218;42.874;25.320;2024-01-07T00:40:08;95759.78;;;15.25;100.00
20115;BME280;10218;42.874;25.320;2024-01-07T00:42:35;95765.16;;;15.14;100.00
20115;BME280;10218;42.874;25.320;2024-01-07T00:45:03;95785.44;;;15.28;100.00
20115;BME280;10218;42.874;25.320;2024-01-07T00:47:31;95766.34;;;15.06;100.00
20115;BME280;10218;42.874;25.320;2024-01-07T00:49:59;95791.38;;;15.30;100.00
20115;BME280;10218;42.874;25.320;2024-01-07T00:52:26;95784.72;;;15.21;100.00
20115;BME280;10218;42.874;25.320;2024-01-07T00:54:54;95764.94;;;15.27;100.00
20115;BME280;10218;42.874;25.320;2024-01-07T00:57:22;95773.25;;;15.37;100.00
20115;BME280;10218;42.874;25.320;2024-01-07T00:59:49;95770.19;;;15.45;100.00
20115;BME280;10218;42.874;25.320;2024-01-07T01:02:17;95745.84;;;15.40;100.00
20115;BME280;10218;42.874;25.320;2024-01-07T01:04:46;95759.78;;;15.49;100.00
20115;BME280;10218;42.874;25.320;2024-01-07T01:07:14;95750.88;;;15.60;100.00
20115;BME280;10218;42.874;25.320;2024-01-07T01:09:42;95738.50;;;15.59;100.00
20115;BME280;10218;42.874;25.320;2024-01-07T01:12:09;95741.13;;;15.82;100.00
20115;BME280;10218;42.874;25.320;2024-01-07T01:14:36;95747.22;;;15.77;100.00
20115;BME280;10218;42.874;25.320;2024-01-07T01:17:03;95741.41;;;15.57;100.00
20115;BME280;10218;42.874;25.320;2024-01-07T01:19:31;95738.28;;;15.89;100.00
20115;BME280;10218;42.874;25.320;2024-01-07T01:21:58;95731.88;;;15.78;100.00
20115;BME280;10218;42.874;25.320;2024-01-07T01:24:26;95715.88;;;15.60;100.00
20115;BME280;10218;42.874;25.320;2024-01-07T01:26:53;95703.06;;;15.38;100.00
20115;BME280;10218;42.874;25.320;2024-01-07T01:29:20;95703.44;;;15.70;100.00
20115;BME280;10218;42.874;25.320;2024-01-07T01:31:48;95716.91;;;15.70;100.00
20115;BME280;10218;42.874;25.320;2024-01-07T01:34:16;95723.88;;;15.43;100.00
20115;BME280;10218;42.874;25.320;2024-01-07T01:36:43;95710.37;;;15.66;100.00
20115;BME280;10218;42.874;25.320;2024-01-07T01:39:10;95710.87;;;15.52;100.00
20115;BME280;10218;42.874;25.320;2024-01-07T01:41:39;95715.53;;;15.45;100.00
20115;BME280;10218;42.874;25.320;2024-01-07T01:44:06;95690.41;;;15.39;100.00
20115;BME280;10218;42.874;25.320;2024-01-07T01:46:34;95687.59;;;15.34;100.00
20115;BME280;10218;42.874;25.320;2024-01-07T01:49:02;95684.12;;;15.73;100.00
20115;BME280;10218;42.874;25.320;2024-01-07T01:51:30;95666.97;;;15.63;100.00
20115;BME280;10218;42.874;25.320;2024-01-07T01:53:58;95673.47;;;15.27;100.00
20115;BME280;10218;42.874;25.320;2024-01-07T01:56:27;95664.87;;;15.13;100.00
20115;BME280;10218;42.874;25.320;2024-01-07T01:58:55;95649.06;;;15.17;100.00
20115;BME280;10218;42.874;25.320;2024-01-07T02:01:23;95642.88;;;15.05;100.00
20115;BME280;10218;42.874;25.320;2024-01-07T02:03:52;95627.88;;;15.09;100.00
20115;BME280;10218;42.874;25.320;2024-01-07T02:06:21;95621.41;;;15.33;100.00
20115;BME280;10218;42.874;25.320;2024-01-07T02:08:49;95612.41;;;15.67;100.00
20115;BME280;10218;42.874;25.320;2024-01-07T02:11:18;95612.81;;;15.48;100.00
20115;BME280;10218;42.874;25.320;2024-01-07T02:13:46;95623.31;;;15.49;100.00
20115;BME280;10218;42.874;25.320;2024-01-07T02:16:14;95620.34;;;15.34;100.00
20115;BME280;10218;42.874;25.320;2024-01-07T02:18:44;95615.66;;;14.89;100.00
20115;BME280;10218;42.874;25.320;2024-01-07T02:21:13;95608.59;;;15.12;100.00
20115;BME280;10218;42.874;25.320;2024-01-07T02:23:41;95597.22;;;15.61;100.00
20115;BME280;10218;42.874;25.320;2024-01-07T02:26:08;95580.16;;;15.56;100.00
20115;BME280;10218;42.874;25.320;2024-01-07T02:28:35;95570.56;;;15.76;100.00
20115;BME280;10218;42.874;25.320;2024-01-07T02:31:03;95576.22;;;15.35;100.00
20115;BME280;10218;42.874;25.320;2024-01-07T02:33:30;95577.88;;;15.36;100.00
20115;BME280;10218;42.874;25.320;2024-01-07T02:35:58;95570.88;;;15.63;100.00
20115;BME280;10218;42.874;25.320;2024-01-07T02:38:26;95565.66;;;15.45;100.00
20115;BME280;10218;42.874;25.320;2024-01-07T02:40:53;95560.84;;;15.59;100.00
20115;BME280;10218;42.874;25.320;2024-01-07T02:43:21;95552.47;;;15.44;100.00
20115;BME280;10218;42.874;25.320;2024-01-07T02:45:48;95552.69;;;15.54;100.00
20115;BME280;10218;42.874;25.320;2024-01-07T02:48:15;95543.88;;;15.58;100.00
20115;BME280;10218;42.874;25.320;2024-01-07T02:50:42;95531.47;;;15.57;100.00
20115;BME280;10218;42.874;25.320;2024-01-07T02:53:10;95534.00;;;15.35;100.00
20115;BME280;10218;42.874;25.320;2024-01-07T02:55:39;95543.13;;;15.34;100.00
20115;BME280;10218;42.874;25.320;2024-01-07T02:58:06;95538.06;;;15.21;100.00
20115;BME280;10218;42.874;25.320;2024-01-07T03:00:35;95525.75;;;15.25;100.00
20115;BME280;10218;42.874;25.320;2024-01-07T03:03:02;95510.34;;;15.21;100.00
20115;BME280;10218;42.874;25.320;2024-01-07T03:05:29;95512.31;;;14.97;100.00
20115;BME280;10218;42.874;25.320;2024-01-07T03:08:00;95530.56;;;14.83;100.00
20115;BME280;10218;42.874;25.320;2024-01-07T03:10:27;95517.88;;;15.07;100.00
20115;BME280;10218;42.874;25.320;2024-01-07T03:12:54;95532.63;;;15.05;100.00
20115;BME280;10218;42.874;25.320;2024-01-07T03:15:22;95553.72;;;14.84;100.00
20115;BME280;10218;42.874;25.320;2024-01-07T03:17:49;95544.72;;;14.79;100.00
20115;BME280;10218;42.874;25.320;2024-01-07T03:20:17;95553.72;;;14.84;100.00
20115;BME280;10218;42.874;25.320;2024-01-07T03:22:44;95550.28;;;15.01;100.00
20115;BME280;10218;42.874;25.320;2024-01-07T03:25:11;95543.56;;;15.15;100.00
20115;BME280;10218;42.874;25.320;2024-01-07T03:27:38;95534.16;;;15.29;100.00
20115;BME280;10218;42.874;25.320;2024-01-07T03:30:06;95542.25;;;14.89;100.00
20115;BME280;10218;42.874;25.320;2024-01-07T03:32:35;95533.03;;;14.85;100.00
20115;BME280;10218;42.874;25.320;2024-01-07T03:35:02;95504.50;;;14.44;100.00
20115;BME280;10218;42.874;25.320;2024-01-07T03:37:30;95514.38;;;15.07;100.00
20115;BME280;10218;42.874;25.320;2024-01-07T03:39:57;95496.69;;;15.11;100.00
20115;BME280;10218;42.874;25.320;2024-01-07T03:42:24;95486.94;;;15.21;100.00
20115;BME280;10218;42.874;25.320;2024-01-07T03:44:51;95461.56;;;14.72;100.00
20115;BME280;10218;42.874;25.320;2024-01-07T03:47:18;95466.06;;;15.12;100.00
20115;BME280;10218;42.874;25.320;2024-01-07T03:49:45;95456.16;;;15.01;100.00
20115;BME280;10218;42.874;25.320;2024-01-07T03:52:13;95455.22;;;15.07;100.00
20115;BME280;10218;42.874;25.320;2024-01-07T03:54:41;95447.69;;;15.09;100.00
20115;BME280;10218;42.874;25.320;2024-01-07T03:57:08;95423.19;;;15.05;100.00
20115;BME280;10218;42.874;25.320;2024-01-07T03:59:35;95416.75;;;15.06;100.00
20115;BME280;10218;42.874;25.320;2024-01-07T04:02:03;95417.84;;;14.93;100.00
20115;BME280;10218;42.874;25.320;2024-01-07T04:04:31;95420.06;;;14.96;100.00
20115;BME280;10218;42.874;25.320;2024-01-07T04:06:58;95399.47;;;15.19;100.00
20115;BME280;10218;42.874;25.320;2024-01-07T04:09:25;95398.31;;;15.15;100.00
20115;BME280;10218;42.874;25.320;2024-01-07T04:11:54;95395.00;;;15.08;100.00
20115;BME280;10218;42.874;25.320;2024-01-07T04:14:23;95381.19;;;14.87;100.00
20115;BME280;10218;42.874;25.320;2024-01-07T04:16:50;95383.22;;;14.80;100.00
20115;BME280;10218;42.874;25.320;2024-01-07T04:19:17;95408.91;;;14.88;100.00
20115;BME280;10218;42.874;25.320;2024-01-07T04:21:46;95381.75;;;14.89;100.00
20115;BME280;10218;42.874;25.320;2024-01-07T04:24:14;95378.69;;;14.69;100.00
20115;BME280;10218;42.874;25.320;2024-01-07T04:26:41;95358.50;;;14.67;100.00
20115;BME280;10218;42.874;25.320;2024-01-07T04:29:09;95338.47;;;14.74;100.00
20115;BME280;10218;42.874;25.320;2024-01-07T04:31:36;95344.81;;;14.68;100.00
20115;BME280;10218;42.874;25.320;2024-01-07T04:34:03;95355.38;;;14.58;100.00
20115;BME280;10218;42.874;25.320;2024-01-07T04:36:30;95374.00;;;14.48;100.00
20115;BME280;10218;42.874;25.320;2024-01-07T04:38:58;95379.12;;;14.49;100.00
20115;BME280;10218;42.874;25.320;2024-01-07T04:41:25;95369.53;;;14.13;100.00
20115;BME280;10218;42.874;25.320;2024-01-07T04:43:52;95350.06;;;14.06;100.00
20115;BME280;10218;42.874;25.320;2024-01-07T04:46:20;95350.13;;;13.71;100.00
20115;BME280;10218;42.874;25.320;2024-01-07T04:48:48;95349.34;;;13.59;100.00
20115;BME280;10218;42.874;25.320;2024-01-07T04:51:15;95334.50;;;13.68;100.00
20115;BME280;10218;42.874;25.320;2024-01-07T04:53:42;95337.03;;;13.87;100.00
20115;BME280;10218;42.874;25.320;2024-01-07T04:56:09;95321.19;;;13.85;100.00
20115;BME280;10218;42.874;25.320;2024-01-07T04:58:37;95313.06;;;13.45;100.00
20115;BME280;10218;42.874;25.320;2024-01-07T05:01:06;95288.34;;;13.43;100.00
20115;BME280;10218;42.874;25.320;2024-01-07T05:03:34;95286.31;;;13.62;100.00
20115;BME280;10218;42.874;25.320;2024-01-07T05:06:02;95273.97;;;13.61;100.00
20115;BME280;10218;42.874;25.320;2024-01-07T05:08:29;95253.47;;;13.43;100.00
20115;BME280;10218;42.874;25.320;2024-01-07T05:10:57;95255.94;;;13.45;100.00
20115;BME280;10218;42.874;25.320;2024-01-07T05:13:24;95262.69;;;13.47;100.00
20115;BME280;10218;42.874;25.320;2024-01-07T05:15:51;95258.44;;;13.63;100.00
20115;BME280;10218;42.874;25.320;2024-01-07T05:18:24;95267.81;;;14.17;100.00
20115;BME280;10218;42.874;25.320;2024-01-07T05:20:51;95278.47;;;13.84;100.00
20115;BME280;10218;42.874;25.320;2024-01-07T05:23:18;95287.50;;;14.06;100.00
20115;BME280;10218;42.874;25.320;2024-01-07T05:25:46;95277.78;;;13.77;100.00
20115;BME280;10218;42.874;25.320;2024-01-07T05:28:14;95293.81;;;13.60;100.00
20115;BME280;10218;42.874;25.320;2024-01-07T05:30:44;95304.75;;;13.70;100.00
20115;BME280;10218;42.874;25.320;2024-01-07T05:33:11;95299.84;;;13.67;100.00
20115;BME280;10218;42.874;25.320;2024-01-07T05:35:39;95304.22;;;13.33;100.00
20115;BME280;10218;42.874;25.320;2024-01-07T05:38:06;95314.78;;;13.63;100.00
20115;BME280;10218;42.874;25.320;2024-01-07T05:40:33;95329.28;;;13.39;100.00
20115;BME280;10218;42.874;25.320;2024-01-07T05:43:01;95305.91;;;13.74;100.00
20115;BME280;10218;42.874;25.320;2024-01-07T05:45:28;95314.75;;;13.86;100.00
20115;BME280;10218;42.874;25.320;2024-01-07T05:47:55;95313.47;;;13.77;100.00
20115;BME280;10218;42.874;25.320;2024-01-07T05:50:23;95320.75;;;13.65;100.00
20115;BME280;10218;42.874;25.320;2024-01-07T05:52:50;95334.16;;;13.65;100.00
20115;BME280;10218;42.874;25.320;2024-01-07T05:55:18;95334.28;;;13.58;100.00
20115;BME280;10218;42.874;25.320;2024-01-07T05:57:45;95337.09;;;13.17;100.00
20115;BME280;10218;42.874;25.320;2024-01-07T06:00:13;95338.44;;;13.08;100.00
20115;BME280;10218;42.874;25.320;2024-01-07T06:02:40;95330.47;;;13.19;100.00
20115;BME280;10218;42.874;25.320;2024-01-07T06:05:08;95329.66;;;13.31;100.00
20115;BME280;10218;42.874;25.320;2024-01-07T06:07:35;95314.31;;;12.96;100.00
20115;BME280;10218;42.874;25.320;2024-01-07T06:10:03;95294.25;;;12.87;100.00
20115;BME280;10218;42.874;25.320;2024-01-07T06:12:30;95267.34;;;12.82;100.00
20115;BME280;10218;42.874;25.320;2024-01-07T06:14:57;95283.97;;;12.61;100.00
20115;BME280;10218;42.874;25.320;2024-01-07T06:17:25;95288.38;;;12.43;100.00
20115;BME280;10218;42.874;25.320;2024-01-07T06:19:52;95295.91;;;12.88;100.00
20115;BME280;10218;42.874;25.320;2024-01-07T06:22:19;95316.75;;;12.74;100.00
20115;BME280;10218;42.874;25.320;2024-01-07T06:24:46;95307.09;;;13.08;100.00
20115;BME280;10218;42.874;25.320;2024-01-07T06:27:14;95324.59;;;12.99;100.00
20115;BME280;10218;42.874;25.320;2024-01-07T06:29:41;95281.66;;;12.76;100.00
20115;BME280;10218;42.874;25.320;2024-01-07T06:32:08;95266.97;;;12.67;100.00
20115;BME280;10218;42.874;25.320;2024-01-07T06:34:36;95241.47;;;12.53;100.00
20115;BME280;10218;42.874;25.320;2024-01-07T06:37:04;95240.16;;;12.55;100.00
20115;BME280;10218;42.874;25.320;2024-01-07T06:39:32;95253.44;;;12.50;100.00
20115;BME280;10218;42.874;25.320;2024-01-07T06:42:01;95237.69;;;12.30;100.00
20115;BME280;10218;42.874;25.320;2024-01-07T06:44:28;95244.56;;;12.26;100.00
20115;BME280;10218;42.874;25.320;2024-01-07T06:46:55;95261.53;;;12.20;100.00
20115;BME280;10218;42.874;25.320;2024-01-07T06:49:22;95266.94;;;12.02;100.00
20115;BME280;10218;42.874;25.320;2024-01-07T06:51:49;95290.41;;;12.00;100.00
20115;BME280;10218;42.874;25.320;2024-01-07T06:54:17;95292.66;;;12.03;100.00
20115;BME280;10218;42.874;25.320;2024-01-07T06:56:44;95302.16;;;11.99;100.00
20115;BME280;10218;42.874;25.320;2024-01-07T06:59:11;95313.28;;;12.14;100.00
20115;BME280;10218;42.874;25.320;2024-01-07T07:01:39;95306.87;;;12.15;100.00
20115;BME280;10218;42.874;25.320;2024-01-07T07:04:07;95299.47;;;12.17;100.00
20115;BME280;10218;42.874;25.320;2024-01-07T07:06:34;95320.06;;;12.17;100.00
20115;BME280;10218;42.874;25.320;2024-01-07T07:09:03;95345.72;;;12.06;100.00
20115;BME280;10218;42.874;25.320;2024-01-07T07:11:31;95347.50;;;11.94;100.00
20115;BME280;10218;42.874;25.320;2024-01-07T07:13:58;95356.00;;;11.73;100.00
20115;BME280;10218;42.874;25.320;2024-01-07T07:16:27;95355.50;;;11.82;100.00
20115;BME280;10218;42.874;25.320;2024-01-07T07:18:54;95346.63;;;11.82;100.00
20115;BME280;10218;42.874;25.320;2024-01-07T07:21:21;95357.72;;;11.85;100.00
20115;BME280;10218;42.874;25.320;2024-01-07T07:23:48;95364.09;;;12.03;100.00
20115;BME280;10218;42.874;25.320;2024-01-07T07:26:15;95366.44;;;12.11;100.00
20115;BME280;10218;42.874;25.320;2024-01-07T07:28:42;95337.63;;;11.94;100.00
20115;BME280;10218;42.874;25.320;2024-01-07T07:31:13;95350.09;;;12.00;100.00
20115;BME280;10218;42.874;25.320;2024-01-07T07:33:40;95338.69;;;11.93;100.00
20115;BME280;10218;42.874;25.320;2024-01-07T07:36:07;95369.78;;;11.70;100.00
20115;BME280;10218;42.874;25.320;2024-01-07T07:38:35;95370.34;;;11.53;100.00
20115;BME280;10218;42.874;25.320;2024-01-07T07:41:02;95341.03;;;11.47;100.00
20115;BME280;10218;42.874;25.320;2024-01-07T07:43:29;95350.19;;;11.57;100.00
20115;BME280;10218;42.874;25.320;2024-01-07T07:45:57;95342.00;;;11.52;100.00
20115;BME280;10218;42.874;25.320;2024-01-07T07:48:24;95346.75;;;11.50;100.00
20115;BME280;10218;42.874;25.320;2024-01-07T07:50:53;95355.81;;;11.49;100.00
20115;BME280;10218;42.874;25.320;2024-01-07T07:53:20;95361.91;;;11.56;100.00
20115;BME280;10218;42.874;25.320;2024-01-07T07:55:47;95352.09;;;11.69;100.00
20115;BME280;10218;42.874;25.320;2024-01-07T07:58:14;95356.47;;;11.45;100.00
20115;BME280;10218;42.874;25.320;2024-01-07T08:00:42;95336.50;;;11.47;100.00
20115;BME280;10218;42.874;25.320;2024-01-07T08:03:10;95335.59;;;11.78;100.00
20115;BME280;10218;42.874;25.320;2024-01-07T08:05:37;95349.28;;;12.00;100.00
20115;BME280;10218;42.874;25.320;2024-01-07T08:08:05;95358.53;;;11.86;100.00
20115;BME280;10218;42.874;25.320;2024-01-07T08:10:33;95338.63;;;13.24;100.00
20115;BME280;10218;42.874;25.320;2024-01-07T08:13:04;95341.72;;;13.91;100.00
20115;BME280;10218;42.874;25.320;2024-01-07T08:15:34;95319.72;;;15.79;100.00
20115;BME280;10218;42.874;25.320;2024-01-07T08:18:01;95308.16;;;15.62;100.00
20115;BME280;10218;42.874;25.320;2024-01-07T08:20:30;95316.22;;;15.46;100.00
20115;BME280;10218;42.874;25.320;2024-01-07T08:22:57;95316.47;;;15.61;100.00
20115;BME280;10218;42.874;25.320;2024-01-07T08:25:24;95315.47;;;16.54;100.00
20115;BME280;10218;42.874;25.320;2024-01-07T08:27:51;95312.50;;;16.29;100.00
20115;BME280;10218;42.874;25.320;2024-01-07T08:30:19;95315.16;;;17.41;100.00
20115;BME280;10218;42.874;25.320;2024-01-07T08:32:46;95313.94;;;15.93;100.00
20115;BME280;10218;42.874;25.320;2024-01-07T08:35:13;95336.72;;;17.73;93.02
20115;BME280;10218;42.874;25.320;2024-01-07T08:37:41;95324.91;;;17.42;100.00
20115;BME280;10218;42.874;25.320;2024-01-07T08:40:08;95314.56;;;16.70;100.00
20115;BME280;10218;42.874;25.320;2024-01-07T08:42:36;95306.63;;;18.01;90.70
20115;BME280;10218;42.874;25.320;2024-01-07T08:45:04;95332.81;;;18.63;79.49
20115;BME280;10218;42.874;25.320;2024-01-07T08:47:31;95317.19;;;19.46;70.45
20115;BME280;10218;42.874;25.320;2024-01-07T08:50:00;95321.97;;;20.69;59.60
20115;BME280;10218;42.874;25.320;2024-01-07T08:52:28;95336.00;;;21.59;53.14
20115;BME280;10218;42.874;25.320;2024-01-07T08:54:56;95326.66;;;19.74;61.11
20115;BME280;10218;42.874;25.320;2024-01-07T08:57:23;95356.72;;;18.29;70.39
20115;BME280;10218;42.874;25.320;2024-01-07T08:59:51;95332.91;;;19.18;68.06
20115;BME280;10218;42.874;25.320;2024-01-07T09:02:19;95365.84;;;18.80;65.63
20115;BME280;10218;42.874;25.320;2024-01-07T09:04:46;95341.41;;;20.32;55.38
20115;BME280;10218;42.874;25.320;2024-01-07T09:07:14;95344.69;;;18.57;65.25
20115;BME280;10218;42.874;25.320;2024-01-07T09:09:43;95364.88;;;17.82;70.09
20115;BME280;10218;42.874;25.320;2024-01-07T09:12:10;95361.03;;;18.97;65.94
20115;BME280;10218;42.874;25.320;2024-01-07T09:14:38;95350.34;;;20.32;56.69
20115;BME280;10218;42.874;25.320;2024-01-07T09:17:05;95353.97;;;18.91;61.89
20115;BME280;10218;42.874;25.320;2024-01-07T09:19:32;95350.94;;;18.57;63.31
20115;BME280;10218;42.874;25.320;2024-01-07T09:22:00;95350.16;;;18.10;61.95
20115;BME280;10218;42.874;25.320;2024-01-07T09:24:30;95348.56;;;17.03;79.14
20115;BME280;10218;42.874;25.320;2024-01-07T09:26:57;95349.91;;;18.84;64.44
20115;BME280;10218;42.874;25.320;2024-01-07T09:29:24;95353.44;;;17.01;78.83
20115;BME280;10218;42.874;25.320;2024-01-07T09:31:51;95363.84;;;17.93;66.91
20115;BME280;10218;42.874;25.320;2024-01-07T09:34:19;95354.56;;;21.81;48.77
20115;BME280;10218;42.874;25.320;2024-01-07T09:36:47;95363.38;;;20.30;50.99
20115;BME280;10218;42.874;25.320;2024-01-07T09:39:15;95365.00;;;18.69;58.01
20115;BME280;10218;42.874;25.320;2024-01-07T09:41:42;95352.63;;;20.00;54.67
20115;BME280;10218;42.874;25.320;2024-01-07T09:44:10;95371.81;;;18.82;60.46
20115;BME280;10218;42.874;25.320;2024-01-07T09:46:39;95360.94;;;18.62;66.26
20115;BME280;10218;42.874;25.320;2024-01-07T09:49:06;95360.97;;;17.68;71.70
20115;BME280;10218;42.874;25.320;2024-01-07T09:51:35;95359.97;;;19.08;61.52
20115;BME280;10218;42.874;25.320;2024-01-07T09:54:08;95361.94;;;18.51;62.62
20115;BME280;10218;42.874;25.320;2024-01-07T09:56:39;95361.16;;;16.92;79.81
20115;BME280;10218;42.874;25.320;2024-01-07T09:59:10;95367.75;;;16.31;93.51
20115;BME280;10218;42.874;25.320;2024-01-07T10:01:38;95359.41;;;16.54;93.87
20115;BME280;10218;42.874;25.320;2024-01-07T10:04:06;95372.88;;;18.76;68.61
20115;BME280;10218;42.874;25.320;2024-01-07T10:06:33;95342.88;;;19.89;59.28
20115;BME280;10218;42.874;25.320;2024-01-07T10:09:00;95342.06;;;18.15;70.76
20115;BME280;10218;42.874;25.320;2024-01-07T10:11:27;95334.88;;;17.41;74.51
20115;BME280;10218;42.874;25.320;2024-01-07T10:13:54;95317.91;;;15.13;100.00
20115;BME280;10218;42.874;25.320;2024-01-07T10:16:22;95314.37;;;14.63;100.00
20115;BME280;10218;42.874;25.320;2024-01-07T10:18:49;95296.97;;;14.37;100.00
20115;BME280;10218;42.874;25.320;2024-01-07T10:21:16;95321.09;;;14.08;100.00
20115;BME280;10218;42.874;25.320;2024-01-07T10:23:43;95325.72;;;14.36;100.00
20115;BME280;10218;42.874;25.320;2024-01-07T10:26:10;95320.38;;;14.70;100.00
20115;BME280;10218;42.874;25.320;2024-01-07T10:28:40;95317.97;;;14.28;100.00
20115;BME280;10218;42.874;25.320;2024-01-07T10:31:07;95322.44;;;15.29;100.00
20115;BME280;10218;42.874;25.320;2024-01-07T10:33:35;95311.94;;;18.48;77.65
20115;BME280;10218;42.874;25.320;2024-01-07T10:36:05;95313.87;;;15.88;100.00
20115;BME280;10218;42.874;25.320;2024-01-07T10:38:33;95322.16;;;16.51;92.14
20115;BME280;10218;42.874;25.320;2024-01-07T10:41:04;95321.03;;;17.70;75.88
20115;BME280;10218;42.874;25.320;2024-01-07T10:43:36;95307.03;;;20.07;59.05
20115;BME280;10218;42.874;25.320;2024-01-07T10:46:04;95309.81;;;19.82;57.66
20115;BME280;10218;42.874;25.320;2024-01-07T10:48:31;95303.47;;;20.17;55.87
20115;BME280;10218;42.874;25.320;2024-01-07T10:51:01;95306.34;;;19.00;57.36
20115;BME280;10218;42.874;25.320;2024-01-07T10:53:34;95303.38;;;19.02;57.79
20115;BME280;10218;42.874;25.320;2024-01-07T10:56:05;95285.81;;;19.45;56.44
20115;BME280;10218;42.874;25.320;2024-01-07T10:58:33;95274.84;;;19.95;53.87
20115;BME280;10218;42.874;25.320;2024-01-07T11:01:03;95283.22;;;19.99;53.99
20115;BME280;10218;42.874;25.320;2024-01-07T11:03:48;95262.25;;;18.95;57.37
20115;BME280;10218;42.874;25.320;2024-01-07T11:06:31;95253.78;;;18.51;62.94
20115;BME280;10218;42.874;25.320;2024-01-07T11:09:12;95246.28;;;18.73;60.27
20115;BME280;10218;42.874;25.320;2024-01-07T11:11:41;95231.94;;;18.67;57.94
20115;BME280;10218;42.874;25.320;2024-01-07T11:14:37;95239.47;;;17.68;63.21
20115;BME280;10218;42.874;25.320;2024-01-07T11:17:06;95239.63;;;18.08;61.30
20115;BME280;10218;42.874;25.320;2024-01-07T11:19:38;95245.19;;;18.59;60.56
20115;BME280;10218;42.874;25.320;2024-01-07T11:22:24;95244.53;;;18.21;59.21
20115;BME280;10218;42.874;25.320;2024-01-07T11:24:52;95233.84;;;19.12;55.66
20115;BME280;10218;42.874;25.320;2024-01-07T11:27:21;95239.50;;;19.06;56.61
20115;BME280;10218;42.874;25.320;2024-01-07T11:32:28;95237.63;;;18.86;54.73
20115;BME280;10218;42.874;25.320;2024-01-07T11:34:56;95243.16;;;17.51;69.44
20115;BME280;10218;42.874;25.320;2024-01-07T11:37:26;95241.16;;;16.95;71.67
20115;BME280;10218;42.874;25.320;2024-01-07T11:39:57;95230.69;;;17.92;63.28
20115;BME280;10218;42.874;25.320;2024-01-07T11:42:25;95215.69;;;16.76;71.87
20115;BME280;10218;42.874;25.320;2024-01-07T11:44:53;95222.56;;;15.86;83.44
20115;BME280;10218;42.874;25.320;2024-01-07T11:47:24;95231.81;;;15.95;85.29
20115;BME280;10218;42.874;25.320;2024-01-07T11:49:55;95232.25;;;15.44;87.58
20115;BME280;10218;42.874;25.320;2024-01-07T11:52:22;95203.69;;;15.21;92.22
20115;BME280;10218;42.874;25.320;2024-01-07T11:54:50;95218.59;;;15.28;94.62
20115;BME280;10218;42.874;25.320;2024-01-07T11:57:17;95261.59;;;15.07;99.09
20115;BME280;10218;42.874;25.320;2024-01-07T11:59:44;95232.22;;;15.22;100.00
20115;BME280;10218;42.874;25.320;2024-01-07T12:02:11;95235.59;;;15.12;100.00
20115;BME280;10218;42.874;25.320;2024-01-07T12:04:39;95229.78;;;15.20;100.00
20115;BME280;10218;42.874;25.320;2024-01-07T12:07:06;95239.41;;;14.99;100.00
20115;BME280;10218;42.874;25.320;2024-01-07T12:09:33;95240.53;;;15.20;100.00
20115;BME280;10218;42.874;25.320;2024-01-07T12:12:01;95231.09;;;15.39;100.00
20115;BME280;10218;42.874;25.320;2024-01-07T12:14:30;95236.34;;;15.29;100.00
20115;BME280;10218;42.874;25.320;2024-01-07T12:16:58;95229.41;;;15.12;100.00
20115;BME280;10218;42.874;25.320;2024-01-07T12:19:26;95242.75;;;15.23;100.00
20115;BME280;10218;42.874;25.320;2024-01-07T12:22:08;95247.25;;;14.84;100.00
20115;BME280;10218;42.874;25.320;2024-01-07T12:24:36;95250.75;;;14.68;100.00
20115;BME280;10218;42.874;25.320;2024-01-07T12:27:06;95244.81;;;14.99;100.00
20115;BME280;10218;42.874;25.320;2024-01-07T12:29:33;95243.97;;;15.16;100.00
20115;BME280;10218;42.874;25.320;2024-01-07T12:32:01;95235.81;;;15.11;100.00
20115;BME280;10218;42.874;25.320;2024-01-07T12:34:30;95247.91;;;14.91;100.00
20115;BME280;10218;42.874;25.320;2024-01-07T12:36:57;95239.78;;;14.86;100.00
20115;BME280;10218;42.874;25.320;2024-01-07T12:39:26;95247.34;;;14.73;100.00
20115;BME280;10218;42.874;25.320;2024-01-07T12:41:54;95252.16;;;14.87;100.00
20115;BME280;10218;42.874;25.320;2024-01-07T12:44:21;95257.19;;;15.01;100.00
20115;BME280;10218;42.874;25.320;2024-01-07T12:46:48;95246.44;;;15.01;100.00
20115;BME280;10218;42.874;25.320;2024-01-07T12:49:18;95248.56;;;14.82;100.00